Terminal Aerodrome Forecast
Issued by NWS Billings, MT

Home | Current Version | Previous Version | Text Only | Print | Product List | Glossary On
Versions: 1 2 3 4 5 6 7 8 9 10 11 12 13 14 15 16 17 18 19 20 21 22 23 24 25 26 27 28 29
000
FTUS45 KBYZ 060537
TAFSHR
TAF
KSHR 060537Z 0606/0706 30005KT 5SM FU VCSH OVC025
      TEMPO 0606/0610 4SM -SHRA BKN035
     FM061800 11005KT P6SM SCT050=

USA.gov is the U.S. government's official web portal to all federal, state and local government web resources and services.